createdAt,value
2017-12-09T00:00:17.573Z,6.53
2017-12-09T00:02:44.427Z,6.85
2017-12-09T00:05:11.262Z,7.20
2017-12-09T00:07:38.117Z,7.45
2017-12-09T00:10:04.932Z,8.13
2017-12-09T00:12:31.742Z,8.55
2017-12-09T00:14:58.562Z,8.65
2017-12-09T00:17:25.406Z,8.50
2017-12-09T00:19:52.235Z,8.93
2017-12-09T00:22:25.042Z,8.90
2017-12-09T00:24:51.869Z,8.40
2017-12-09T00:27:18.691Z,9.30
2017-12-09T00:29:45.530Z,9.18
2017-12-09T00:32:12.345Z,8.85
2017-12-09T00:34:39.183Z,8.82
2017-12-09T00:37:06.001Z,8.85
2017-12-09T00:39:32.828Z,9.65
2017-12-09T00:41:59.621Z,9.32
2017-12-09T00:44:26.430Z,9.00
2017-12-09T00:46:53.218Z,9.98
2017-12-09T00:49:20.048Z,9.15
2017-12-09T00:51:46.849Z,9.25
2017-12-09T00:54:13.633Z,9.30
2017-12-09T00:56:40.421Z,9.10
2017-12-09T00:59:07.306Z,9.55
2017-12-09T01:01:34.219Z,9.75
2017-12-09T01:04:01.011Z,10.00
2017-12-09T01:06:28.741Z,10.57
2017-12-09T01:08:55.535Z,9.77
2017-12-09T01:11:22.334Z,9.80
2017-12-09T01:13:49.185Z,10.10
2017-12-09T01:16:21.993Z,9.90
2017-12-09T01:18:54.823Z,9.73
2017-12-09T01:21:21.655Z,10.20
2017-12-09T01:23:48.472Z,10.43
2017-12-09T01:26:15.274Z,9.90
2017-12-09T01:28:42.091Z,10.80
2017-12-09T01:31:08.931Z,10.73
2017-12-09T01:33:35.761Z,10.32
2017-12-09T01:36:02.599Z,10.57
2017-12-09T01:38:29.404Z,9.90
2017-12-09T01:40:56.219Z,10.50
2017-12-09T01:43:23.036Z,9.80
2017-12-09T01:45:50.135Z,9.40
2017-12-09T01:48:17.011Z,9.38
2017-12-09T01:50:43.821Z,9.70
2017-12-09T01:53:10.649Z,9.80
2017-12-09T01:55:37.523Z,10.30
2017-12-09T01:58:04.653Z,9.45
2017-12-09T02:00:31.506Z,9.70
2017-12-09T02:02:58.363Z,9.50
2017-12-09T02:05:25.202Z,9.88
2017-12-09T02:07:52.005Z,9.93
2017-12-09T02:10:18.841Z,10.20
2017-12-09T02:12:45.662Z,10.20
2017-12-09T02:15:12.506Z,9.82
2017-12-09T02:17:39.391Z,10.25
2017-12-09T02:20:06.173Z,10.10
2017-12-09T02:22:33.008Z,10.18
2017-12-09T02:24:59.865Z,10.18
2017-12-09T02:27:26.672Z,9.85
2017-12-09T02:29:53.519Z,9.77
2017-12-09T02:32:20.383Z,9.63
2017-12-09T02:34:47.237Z,9.50
2017-12-09T02:37:14.054Z,10.07
2017-12-09T02:39:40.894Z,9.30
2017-12-09T02:42:07.706Z,9.67
2017-12-09T02:44:34.524Z,9.90
2017-12-09T02:47:01.392Z,9.80
2017-12-09T02:49:28.219Z,10.65
2017-12-09T02:51:55.034Z,10.10
2017-12-09T02:54:21.920Z,9.75
2017-12-09T02:56:49.001Z,9.88
2017-12-09T02:59:15.825Z,10.70
2017-12-09T03:01:42.704Z,10.25
2017-12-09T03:04:09.515Z,10.65
2017-12-09T03:06:36.318Z,10.57
2017-12-09T03:09:03.161Z,10.68
2017-12-09T03:11:29.984Z,11.10
2017-12-09T03:13:56.817Z,11.82
2017-12-09T03:16:23.694Z,11.60
2017-12-09T03:18:50.540Z,11.30
2017-12-09T03:21:17.391Z,11.50
2017-12-09T03:23:44.263Z,9.80
2017-12-09T03:26:11.109Z,10.95
2017-12-09T03:28:37.901Z,10.63
2017-12-09T03:31:04.788Z,10.80
2017-12-09T03:33:31.658Z,10.50
2017-12-09T03:35:58.483Z,10.77
2017-12-09T03:38:25.341Z,10.50
2017-12-09T03:40:52.186Z,10.63
2017-12-09T03:43:19.003Z,10.40
2017-12-09T03:45:45.826Z,10.77
2017-12-09T03:48:12.663Z,10.32
2017-12-09T03:50:39.491Z,9.63
2017-12-09T03:53:06.309Z,10.40
2017-12-09T03:55:33.151Z,9.90
2017-12-09T03:57:59.962Z,9.55
2017-12-09T04:00:26.798Z,9.65
2017-12-09T04:02:53.677Z,9.80
2017-12-09T04:05:20.474Z,8.57
2017-12-09T04:07:47.299Z,9.00
2017-12-09T04:10:14.139Z,8.07
2017-12-09T04:12:40.931Z,8.25
2017-12-09T04:15:07.770Z,8.70
2017-12-09T04:17:34.578Z,7.97
2017-12-09T04:20:01.414Z,7.65
2017-12-09T04:22:28.226Z,7.05
2017-12-09T04:24:55.025Z,7.00
2017-12-09T04:27:21.832Z,7.20
2017-12-09T04:29:48.712Z,6.80
2017-12-09T04:32:15.545Z,6.80
2017-12-09T04:34:42.371Z,6.00
2017-12-09T04:37:09.226Z,6.60
2017-12-09T04:39:36.025Z,5.80
2017-12-09T04:42:02.830Z,6.60
2017-12-09T04:44:29.681Z,5.82
2017-12-09T04:46:56.833Z,5.30
2017-12-09T04:49:23.675Z,5.00
2017-12-09T04:51:50.831Z,5.68
2017-12-09T04:54:17.682Z,5.25
2017-12-09T04:56:44.507Z,5.05
2017-12-09T04:59:11.383Z,5.10
2017-12-09T05:01:38.181Z,5.00
2017-12-09T05:04:05.044Z,4.18
2017-12-09T05:06:31.899Z,4.47
2017-12-09T05:08:58.735Z,4.50
2017-12-09T05:11:25.526Z,4.07
2017-12-09T05:13:52.376Z,4.20
2017-12-09T05:16:19.158Z,4.25
2017-12-09T05:18:46.019Z,3.55
2017-12-09T05:21:12.846Z,4.10
2017-12-09T05:23:39.649Z,3.80
2017-12-09T05:26:06.459Z,3.70
2017-12-09T05:28:33.289Z,3.40
2017-12-09T05:31:00.115Z,3.35
2017-12-09T05:33:27.201Z,3.30
2017-12-09T05:35:54.315Z,3.10
2017-12-09T05:38:21.126Z,3.50
2017-12-09T05:40:47.931Z,3.23
2017-12-09T05:43:14.802Z,3.12
2017-12-09T05:45:41.584Z,3.30
2017-12-09T05:48:08.388Z,3.20
2017-12-09T05:50:35.247Z,3.00
2017-12-09T05:53:02.087Z,3.17
2017-12-09T05:55:28.932Z,3.00
2017-12-09T05:57:56.002Z,2.80
2017-12-09T06:00:22.823Z,3.03
2017-12-09T06:02:49.640Z,2.65
2017-12-09T06:05:16.843Z,3.10
2017-12-09T06:07:43.679Z,3.30
2017-12-09T06:10:10.480Z,2.87
2017-12-09T06:12:37.347Z,3.20
2017-12-09T06:15:04.161Z,3.33
2017-12-09T06:17:30.995Z,3.33
2017-12-09T06:19:57.854Z,3.55
2017-12-09T06:22:24.693Z,3.10
2017-12-09T06:24:51.548Z,3.20
2017-12-09T06:27:18.629Z,3.10
2017-12-09T06:29:45.471Z,3.20
2017-12-09T06:32:12.295Z,2.60
2017-12-09T06:34:39.120Z,3.00
2017-12-09T06:37:05.950Z,2.78
2017-12-09T06:39:32.766Z,2.80
2017-12-09T06:41:59.619Z,2.70
2017-12-09T06:44:26.743Z,2.78
2017-12-09T06:46:53.579Z,2.50
2017-12-09T06:49:20.418Z,2.45
2017-12-09T06:51:47.279Z,2.40
2017-12-09T06:54:14.108Z,2.78
2017-12-09T06:56:40.946Z,3.95
2017-12-09T06:59:07.797Z,2.70
2017-12-09T07:01:34.647Z,4.10
2017-12-09T07:04:01.515Z,2.80
2017-12-09T07:06:28.343Z,2.72
2017-12-09T07:08:55.163Z,2.83
2017-12-09T07:11:22.016Z,2.78
2017-12-09T07:13:48.818Z,2.90
2017-12-09T07:16:15.634Z,2.90
2017-12-09T07:18:42.509Z,3.10
2017-12-09T07:21:09.314Z,3.00
2017-12-09T07:23:36.147Z,3.20
2017-12-09T07:26:02.995Z,3.55
2017-12-09T07:28:29.798Z,3.50
2017-12-09T07:30:56.651Z,3.70
2017-12-09T07:33:23.475Z,3.90
2017-12-09T07:35:50.554Z,4.50
2017-12-09T07:38:17.370Z,4.20
2017-12-09T07:40:44.547Z,4.32
2017-12-09T07:43:11.376Z,4.40
2017-12-09T07:45:38.228Z,4.43
2017-12-09T07:48:05.062Z,4.50
2017-12-09T07:50:31.907Z,4.87
2017-12-09T07:52:58.739Z,4.20
2017-12-09T07:55:25.553Z,4.50
2017-12-09T07:57:52.651Z,6.40
2017-12-09T08:00:19.458Z,5.60
2017-12-09T08:02:46.323Z,4.45
2017-12-09T08:05:13.151Z,4.70
2017-12-09T08:07:39.999Z,4.32
2017-12-09T08:10:06.851Z,4.57
2017-12-09T08:12:34.019Z,4.40
2017-12-09T08:15:00.863Z,4.53
2017-12-09T08:17:27.716Z,5.00
2017-12-09T08:19:54.550Z,5.30
2017-12-09T08:22:21.400Z,5.90
2017-12-09T08:24:48.248Z,5.40
2017-12-09T08:27:15.048Z,5.30
2017-12-09T08:29:41.846Z,5.60
2017-12-09T08:32:08.666Z,5.70
2017-12-09T08:34:35.465Z,5.90
2017-12-09T08:37:02.342Z,5.72
2017-12-09T08:39:29.199Z,5.50
2017-12-09T08:41:56.016Z,5.20
2017-12-09T08:44:22.860Z,4.80
2017-12-09T08:46:49.697Z,5.35
2017-12-09T08:49:16.543Z,4.75
2017-12-09T08:51:43.375Z,4.40
2017-12-09T08:54:10.198Z,4.50
2017-12-09T08:56:37.010Z,4.50
2017-12-09T08:59:03.888Z,4.28
2017-12-09T09:01:30.751Z,4.70
2017-12-09T09:03:57.633Z,7.35
2017-12-09T09:06:24.386Z,4.40
2017-12-09T09:08:51.255Z,4.13
2017-12-09T09:11:18.071Z,4.22
2017-12-09T09:13:44.912Z,3.87
2017-12-09T09:16:11.755Z,4.25
2017-12-09T09:18:38.597Z,4.30
2017-12-09T09:21:05.439Z,4.50
2017-12-09T09:23:32.262Z,4.90
2017-12-09T09:25:59.113Z,4.70
2017-12-09T09:28:25.929Z,4.85
2017-12-09T09:30:52.795Z,5.53
2017-12-09T09:33:19.626Z,5.53
2017-12-09T09:35:46.466Z,5.85
2017-12-09T09:38:13.324Z,6.30
2017-12-09T09:40:40.173Z,6.85
2017-12-09T09:43:07.009Z,6.70
2017-12-09T09:45:33.871Z,7.32
2017-12-09T09:48:00.719Z,7.68
2017-12-09T09:50:27.534Z,7.40
2017-12-09T09:52:54.362Z,7.68
2017-12-09T09:55:21.198Z,7.22
2017-12-09T09:57:47.977Z,7.15
2017-12-09T10:00:19.774Z,7.10
2017-12-09T10:02:46.631Z,6.90
2017-12-09T10:05:13.448Z,7.30
2017-12-09T10:07:40.290Z,9.18
2017-12-09T10:10:07.103Z,7.82
2017-12-09T10:12:33.955Z,8.10
2017-12-09T10:15:00.835Z,7.78
2017-12-09T10:17:27.698Z,7.03
2017-12-09T10:19:54.515Z,7.07
2017-12-09T10:22:21.338Z,7.20
2017-12-09T10:24:48.179Z,7.00
2017-12-09T10:27:15.004Z,7.55
2017-12-09T10:29:41.856Z,7.22
2017-12-09T10:32:08.646Z,7.00
2017-12-09T10:34:35.484Z,6.25
2017-12-09T10:37:02.318Z,6.30
2017-12-09T10:39:29.117Z,6.50
2017-12-09T10:41:55.969Z,5.60
2017-12-09T10:44:23.116Z,5.40
2017-12-09T10:46:49.909Z,4.87
2017-12-09T10:49:16.722Z,4.90
2017-12-09T10:51:43.561Z,4.57
2017-12-09T10:54:10.350Z,5.03
2017-12-09T10:56:37.163Z,5.37
2017-12-09T10:59:03.998Z,4.20
2017-12-09T11:01:30.838Z,3.67
2017-12-09T11:03:57.950Z,2.90
2017-12-09T11:06:24.786Z,3.28
2017-12-09T11:08:51.631Z,2.50
2017-12-09T11:11:18.452Z,2.40
2017-12-09T11:19:14.892Z,2.25
2017-12-09T11:21:42.008Z,2.55
2017-12-09T11:24:08.867Z,2.90
2017-12-09T11:26:35.730Z,3.00
2017-12-09T11:29:02.613Z,3.10
2017-12-09T11:31:29.455Z,3.40
2017-12-09T11:33:56.380Z,3.40
2017-12-09T11:36:23.221Z,3.87
2017-12-09T11:38:50.428Z,4.20
2017-12-09T11:41:17.272Z,4.30
2017-12-09T11:43:44.115Z,4.50
2017-12-09T11:46:11.002Z,3.87
2017-12-09T11:48:37.863Z,4.55
2017-12-09T11:51:04.727Z,4.10
2017-12-09T11:53:31.599Z,4.20
2017-12-09T11:55:58.496Z,3.92
2017-12-09T11:58:25.379Z,4.15
2017-12-09T12:00:52.522Z,4.57
2017-12-09T12:03:19.442Z,4.25
2017-12-09T12:05:46.629Z,4.00
2017-12-09T12:08:13.776Z,4.30
2017-12-09T12:10:40.687Z,4.20
2017-12-09T12:13:07.561Z,3.72
2017-12-09T12:15:34.460Z,3.75
2017-12-09T12:18:01.377Z,3.75
2017-12-09T12:20:28.243Z,3.75
2017-12-09T12:22:55.107Z,3.20
2017-12-09T12:25:21.996Z,3.50
2017-12-09T12:27:49.132Z,2.90
2017-12-09T12:30:16.285Z,3.20
2017-12-09T12:32:43.151Z,2.80
2017-12-09T12:35:10.271Z,2.40
2017-12-09T12:37:37.164Z,2.60
2017-12-09T12:40:04.087Z,2.30
2017-12-09T12:42:30.919Z,2.40
2017-12-09T12:44:57.793Z,2.20
2017-12-09T12:47:24.686Z,2.13
2017-12-09T12:49:51.527Z,2.23
2017-12-09T12:52:18.359Z,2.10
2017-12-09T12:54:45.231Z,2.10
2017-12-09T12:57:12.099Z,2.85
2017-12-09T12:59:38.981Z,3.00
2017-12-09T13:02:05.859Z,3.10
2017-12-09T13:04:32.725Z,2.97
2017-12-09T13:06:59.613Z,3.12
2017-12-09T13:09:26.487Z,3.60
2017-12-09T13:11:53.320Z,3.90
2017-12-09T13:14:20.208Z,4.15
2017-12-09T13:16:47.119Z,4.20
2017-12-09T13:19:13.971Z,4.60
2017-12-09T13:21:40.868Z,4.30
2017-12-09T13:24:07.700Z,4.40
2017-12-09T13:26:34.584Z,4.00
2017-12-09T13:29:01.452Z,4.20
2017-12-09T13:31:28.337Z,3.67
2017-12-09T13:33:55.227Z,3.40
2017-12-09T13:36:22.112Z,3.30
2017-12-09T13:38:49.873Z,3.15
2017-12-09T13:41:16.745Z,3.45
2017-12-09T13:43:43.939Z,3.33
2017-12-09T13:46:10.824Z,4.00
2017-12-09T13:48:37.696Z,4.60
2017-12-09T13:51:04.572Z,4.35
2017-12-09T13:53:31.452Z,5.10
2017-12-09T13:55:58.332Z,5.50
2017-12-09T13:58:25.179Z,4.72
2017-12-09T14:00:52.024Z,4.97
2017-12-09T14:03:18.911Z,4.80
2017-12-09T14:05:45.771Z,4.62
2017-12-09T14:08:12.688Z,4.65
2017-12-09T14:10:39.569Z,4.37
2017-12-09T14:13:06.448Z,3.90
2017-12-09T14:15:33.307Z,3.65
2017-12-09T14:18:00.216Z,3.40
2017-12-09T14:20:27.049Z,2.90
2017-12-09T14:22:53.874Z,2.80
2017-12-09T14:25:20.728Z,3.30
2017-12-09T14:27:47.539Z,2.83
2017-12-09T14:30:14.404Z,2.50
2017-12-09T14:32:41.243Z,2.67
2017-12-09T14:35:08.055Z,2.87
2017-12-09T14:37:34.910Z,2.90
2017-12-09T14:40:01.730Z,2.22
2017-12-09T14:42:28.585Z,2.70
2017-12-09T14:44:55.424Z,3.00
2017-12-09T14:47:22.280Z,2.70
2017-12-09T14:49:49.099Z,2.40
2017-12-09T14:52:15.959Z,2.12
2017-12-09T14:54:43.105Z,2.40
2017-12-09T14:57:09.940Z,2.80
2017-12-09T14:59:36.833Z,2.75
2017-12-09T15:02:03.667Z,4.30
2017-12-09T15:04:30.493Z,3.08
2017-12-09T15:06:57.367Z,2.10
2017-12-09T15:09:24.207Z,2.10
2017-12-09T15:11:51.035Z,2.22
2017-12-09T15:14:17.920Z,2.40
2017-12-09T15:16:44.789Z,1.98
2017-12-09T15:19:11.640Z,1.80
2017-12-09T15:21:38.525Z,1.83
2017-12-09T15:24:05.628Z,2.20
2017-12-09T15:26:32.448Z,1.60
2017-12-09T15:28:59.287Z,1.70
2017-12-09T15:31:26.115Z,1.90
2017-12-09T15:33:52.980Z,2.12
2017-12-09T15:36:19.848Z,1.50
2017-12-09T15:38:46.792Z,1.80
2017-12-09T15:41:13.668Z,2.10
2017-12-09T15:43:40.566Z,1.80
2017-12-09T15:46:07.735Z,1.65
2017-12-09T15:48:34.580Z,1.50
2017-12-09T15:51:01.427Z,1.90
2017-12-09T15:53:28.291Z,1.70
2017-12-09T15:55:55.224Z,2.03
2017-12-09T15:58:22.105Z,1.95
2017-12-09T16:00:48.967Z,1.70
2017-12-09T16:03:15.839Z,2.05
2017-12-09T16:05:42.700Z,1.77
2017-12-09T16:08:09.576Z,1.90
2017-12-09T16:10:36.427Z,2.42
2017-12-09T16:13:03.372Z,2.00
2017-12-09T16:15:30.249Z,1.62
2017-12-09T16:17:57.115Z,2.00
2017-12-09T16:20:24.049Z,1.60
2017-12-09T16:22:50.924Z,1.92
2017-12-09T16:25:17.783Z,2.30
2017-12-09T16:27:44.659Z,2.33
2017-12-09T16:30:11.557Z,2.50
2017-12-09T16:32:38.777Z,2.58
2017-12-09T16:35:05.684Z,2.62
2017-12-09T16:37:32.536Z,2.70
2017-12-09T16:39:59.441Z,2.60
2017-12-09T16:42:26.661Z,2.45
2017-12-09T16:44:53.512Z,2.50
2017-12-09T16:47:20.388Z,2.53
2017-12-09T16:49:47.250Z,3.08
2017-12-09T16:52:14.128Z,2.42
2017-12-09T16:54:41.021Z,2.60
2017-12-09T16:57:07.891Z,2.60
2017-12-09T16:59:34.736Z,2.30
2017-12-09T17:02:01.571Z,2.65
2017-12-09T17:04:28.472Z,2.65
2017-12-09T17:06:55.327Z,11.45
2017-12-09T17:09:22.223Z,3.15
2017-12-09T17:11:49.112Z,2.50
2017-12-09T17:14:16.008Z,2.20
2017-12-09T17:16:42.863Z,1.73
2017-12-09T17:19:10.024Z,1.80
2017-12-09T17:21:36.880Z,1.70
2017-12-09T17:24:03.834Z,1.60
2017-12-09T17:26:31.064Z,1.77
2017-12-09T17:28:57.911Z,1.77
2017-12-09T17:31:24.747Z,2.00
2017-12-09T17:33:51.648Z,1.90
2017-12-09T17:36:18.493Z,1.70
2017-12-09T17:38:45.383Z,1.90
2017-12-09T17:41:12.309Z,2.00
2017-12-09T17:43:39.195Z,2.20
2017-12-09T17:46:06.424Z,2.10
2017-12-09T17:48:33.576Z,2.00
2017-12-09T17:51:00.424Z,2.30
2017-12-09T17:53:27.267Z,2.22
2017-12-09T17:55:54.147Z,2.10
2017-12-09T17:58:21.045Z,2.00
2017-12-09T18:00:47.913Z,2.00
2017-12-09T18:03:14.787Z,2.30
2017-12-09T18:05:41.653Z,1.85
2017-12-09T18:08:08.528Z,1.90
2017-12-09T18:10:35.404Z,1.90
2017-12-09T18:13:02.301Z,2.30
2017-12-09T18:15:29.179Z,2.40
2017-12-09T18:17:56.408Z,2.70
2017-12-09T18:20:23.293Z,2.95
2017-12-09T18:22:50.216Z,4.10
2017-12-09T18:25:17.089Z,5.75
2017-12-09T18:27:43.973Z,3.43
2017-12-09T18:30:10.859Z,4.53
2017-12-09T18:32:37.819Z,4.50
2017-12-09T18:35:04.679Z,4.20
2017-12-09T18:37:31.552Z,4.43
2017-12-09T18:39:58.395Z,4.80
2017-12-09T18:42:25.619Z,5.00
2017-12-09T18:44:52.488Z,6.35
2017-12-09T18:47:19.422Z,5.10
2017-12-09T18:49:46.263Z,4.97
2017-12-09T18:52:13.156Z,5.00
2017-12-09T18:54:40.058Z,4.40
2017-12-09T18:57:06.927Z,5.50
2017-12-09T18:59:33.811Z,5.00
2017-12-09T19:02:00.737Z,6.10
2017-12-09T19:04:27.864Z,4.62
2017-12-09T19:06:54.732Z,5.50
2017-12-09T19:09:21.609Z,5.15
2017-12-09T19:11:48.516Z,4.50
2017-12-09T19:14:15.359Z,4.90
2017-12-09T19:16:42.258Z,4.40
2017-12-09T19:19:09.123Z,4.78
2017-12-09T19:21:36.029Z,9.13
2017-12-09T19:24:02.883Z,5.15
2017-12-09T19:26:30.065Z,4.30
2017-12-09T19:28:56.914Z,3.70
2017-12-09T19:31:23.797Z,3.30
2017-12-09T19:33:50.693Z,2.93
2017-12-09T19:36:17.560Z,2.63
2017-12-09T19:38:44.447Z,2.70
2017-12-09T19:41:11.283Z,2.20
2017-12-09T19:43:38.165Z,2.07
2017-12-09T19:46:05.036Z,2.27
2017-12-09T19:48:32.163Z,2.00
2017-12-09T19:50:59.003Z,1.95
2017-12-09T19:53:25.916Z,2.10
2017-12-09T19:55:52.821Z,2.00
2017-12-09T19:58:19.683Z,2.30
2017-12-09T20:00:46.589Z,2.50
2017-12-09T20:03:13.737Z,2.80
2017-12-09T20:05:40.594Z,2.70
2017-12-09T20:08:07.443Z,2.50
2017-12-09T20:10:34.327Z,2.60
2017-12-09T20:13:01.188Z,2.40
2017-12-09T20:15:28.082Z,2.53
2017-12-09T20:17:54.932Z,2.60
2017-12-09T20:20:21.820Z,2.90
2017-12-09T20:22:48.696Z,2.80
2017-12-09T20:25:15.586Z,2.45
2017-12-09T20:27:42.451Z,4.70
2017-12-09T20:30:09.323Z,3.30
2017-12-09T20:32:36.199Z,3.10
2017-12-09T20:35:03.135Z,3.35
2017-12-09T20:37:30.043Z,3.60
2017-12-09T20:39:56.888Z,2.90
2017-12-09T20:42:23.804Z,2.80
2017-12-09T20:44:50.691Z,3.30
2017-12-09T20:47:17.609Z,3.20
2017-12-09T20:49:44.476Z,4.70
2017-12-09T20:52:11.372Z,3.50
2017-12-09T20:54:38.232Z,3.50
2017-12-09T20:57:05.083Z,3.50
2017-12-09T20:59:31.978Z,3.53
2017-12-09T21:01:58.869Z,4.05
2017-12-09T21:04:25.777Z,3.60
2017-12-09T21:06:52.623Z,3.60
2017-12-09T21:09:19.487Z,4.00
2017-12-09T21:11:46.675Z,3.50
2017-12-09T21:14:13.547Z,4.03
2017-12-09T21:16:40.667Z,4.05
2017-12-09T21:19:07.547Z,3.67
2017-12-09T21:21:34.418Z,3.80
2017-12-09T21:24:01.504Z,3.50
2017-12-09T21:26:29.080Z,3.40
2017-12-09T21:28:55.947Z,3.70
2017-12-09T21:31:22.822Z,3.50
2017-12-09T21:33:49.669Z,3.70
2017-12-09T21:36:16.645Z,4.10
2017-12-09T21:38:43.491Z,3.37
2017-12-09T21:41:10.405Z,3.10
2017-12-09T21:43:37.284Z,3.45
2017-12-09T21:46:04.139Z,3.37
2017-12-09T21:48:31.011Z,3.00
2017-12-09T21:50:57.900Z,3.10
2017-12-09T21:53:24.767Z,3.10
2017-12-09T21:55:51.672Z,3.05
2017-12-09T21:58:18.610Z,3.00
2017-12-09T22:00:45.447Z,3.30
2017-12-09T22:03:12.315Z,3.00
2017-12-09T22:05:39.219Z,2.85
2017-12-09T22:08:06.132Z,3.03
2017-12-09T22:10:32.987Z,3.05
2017-12-09T22:13:00.107Z,3.17
2017-12-09T22:15:26.992Z,2.67
2017-12-09T22:17:53.872Z,2.83
2017-12-09T22:20:21.050Z,3.42
2017-12-09T22:22:47.936Z,3.50
2017-12-09T22:25:14.781Z,3.23
2017-12-09T22:27:41.677Z,3.00
2017-12-09T22:30:08.548Z,3.20
2017-12-09T22:32:35.452Z,5.50
2017-12-09T22:35:02.616Z,3.60
2017-12-09T22:37:29.475Z,2.70
2017-12-09T22:39:56.361Z,3.30
2017-12-09T22:42:23.180Z,2.67
2017-12-09T22:44:50.086Z,2.70
2017-12-09T22:47:16.972Z,3.70
2017-12-09T22:49:43.876Z,3.20
2017-12-09T22:52:10.763Z,2.45
2017-12-09T22:54:37.876Z,2.80
2017-12-09T22:57:04.799Z,2.90
2017-12-09T22:59:31.663Z,2.50
2017-12-09T23:01:58.588Z,3.10
2017-12-09T23:04:25.505Z,2.60
2017-12-09T23:06:52.363Z,2.60
2017-12-09T23:09:19.252Z,2.30
2017-12-09T23:11:46.173Z,2.90
2017-12-09T23:14:13.076Z,2.60
2017-12-09T23:16:39.911Z,2.15
2017-12-09T23:19:06.820Z,2.80
2017-12-09T23:21:33.707Z,2.30
2017-12-09T23:24:00.559Z,2.60
2017-12-09T23:26:27.469Z,2.53
2017-12-09T23:28:54.323Z,5.53
2017-12-09T23:31:21.178Z,3.00
2017-12-09T23:33:48.283Z,2.50
2017-12-09T23:36:15.139Z,2.20
2017-12-09T23:38:41.988Z,2.50
2017-12-09T23:41:09.133Z,2.80
2017-12-09T23:43:36.003Z,3.20
2017-12-09T23:46:02.855Z,2.95
2017-12-09T23:48:29.731Z,3.17
2017-12-09T23:50:56.620Z,2.80
2017-12-09T23:53:23.487Z,3.30
2017-12-09T23:55:50.392Z,4.40
2017-12-09T23:58:17.251Z,3.33
